Archival Weather

Beaver Creek

Beaver Creek, Yukon (CYXQ)

Report from: Thursday, December 7, 2023 11:00 AM PST
Current time: Tuesday, April 23, 2024 12:56 AM PDT

Current weather – Weather history – Daily summaries
Weather forecast

Present weatherLight snow
Temperature-17.0°C (1.4°F)
Dew point-19.0°C (-2.2°F)
Winds Calm
Visibility20 mi. (32.2 km)
Clouds Scattered clouds 5,500 ft. (1,676 m)
Ceiling: Overcast 8,000 ft. (2,438 m)
Altimeter29.57 in.Hg (1001 mB)
Relative humidity84 %
Density altitude-3,849 ft. (-1,173 m)
Sea-level pressure100.8 kPa (1008 mB, 29.76 in.Hg)
Remarks Very
Flight conditions Visual Meteorological Conditions
Raw dataCYXQ 071900Z 00000KT 20SM -SN SCT055 OVC080 M17/M19 A2957 RMK SC4AC4 /PCPN VRY LGT/ SLP077
An error has occurred. This application may no longer respond until reloaded. Reload 🗙